Time;durP1;ratioP1;P1;durP2;ratioP2;P2;SDS_P1;SDS_P2;PMS_P1;PMS_P2;Temp;Humidity;BMP_temperature;BMP_pressure;BME280_temperature;BME280_humidity;BME280_pressure;Samples;Min_cycle;Max_cycle;Signal;HPM_P1;HPM_P2
2022/07/10 00:01:36;;;;;;;;;;;25.10;53.50;;;;;;5021667;28;20016;-83
2022/07/10 00:04:04;;;;;;;;;;;25.10;53.50;;;;;;5022046;28;19932;-83
2022/07/10 00:06:31;;;;;;;;;;;25.10;53.70;;;;;;5022310;28;19929;-83
2022/07/10 00:08:58;;;;;;;;;;;25.10;53.70;;;;;;5022759;28;19932;-83
2022/07/10 00:11:25;;;;;;;;;;;25.00;53.70;;;;;;5022772;28;20020;-83
2022/07/10 00:13:52;;;;;;;;;;;25.10;53.90;;;;;;5022707;28;19929;-83
2022/07/10 00:16:24;;;;;;;;;;;25.10;53.90;;;;;;5022025;28;19926;-83
2022/07/10 00:18:51;;;;;;;;;;;25.10;54.00;;;;;;5021448;28;20023;-83
2022/07/10 00:21:23;;;;;;;;;;;25.00;54.10;;;;;;5021761;28;19925;-83
2022/07/10 00:23:51;;;;;;;;;;;25.00;54.20;;;;;;5021820;28;19926;-83
2022/07/10 00:26:23;;;;;;;;;;;25.00;54.20;;;;;;5021178;28;19926;-83
2022/07/10 00:28:50;;;;;;;;;;;25.00;54.30;;;;;;5020617;28;19926;-83
2022/07/10 00:31:17;;;;;;;;;;;25.00;54.30;;;;;;5020862;28;19931;-81
2022/07/10 00:33:43;;;;;;;;;;;25.00;54.40;;;;;;5022849;28;19971;-81
2022/07/10 00:36:10;;;;;;;;;;;25.00;54.40;;;;;;5025700;28;19925;-81
2022/07/10 00:38:38;;;;;;;;;;;25.00;54.50;;;;;;5024841;28;19926;-81
2022/07/10 00:41:05;;;;;;;;;;;25.00;54.60;;;;;;5020821;28;19956;-81
2022/07/10 06:32:12;;;;;;;;;;;24.90;62.00;;;;;;6150788;23;20202;31
2022/07/10 06:34:40;;;;;;;;;;;24.90;62.10;;;;;;4982876;28;19980;-81
2022/07/10 06:37:07;;;;;;;;;;;24.90;62.10;;;;;;4983221;28;20032;-80
2022/07/10 06:39:34;;;;;;;;;;;24.90;62.20;;;;;;4982974;28;19926;-80
2022/07/10 06:42:01;;;;;;;;;;;24.90;62.30;;;;;;4982893;28;20385;-80
2022/07/10 06:44:28;;;;;;;;;;;24.90;62.40;;;;;;4983523;28;20016;-81
2022/07/10 06:49:35;;;;;;;;;;;25.00;62.70;;;;;;4977821;28;19930;-77
2022/07/10 06:52:04;;;;;;;;;;;24.90;62.70;;;;;;4978820;28;20448;-78
2022/07/10 06:54:30;;;;;;;;;;;25.00;62.90;;;;;;4981285;28;20017;-78
2022/07/10 06:56:57;;;;;;;;;;;24.90;62.90;;;;;;4984816;28;19969;-79
2022/07/10 06:59:24;;;;;;;;;;;24.90;63.00;;;;;;4984504;28;20008;-78
2022/07/10 07:01:51;;;;;;;;;;;24.90;63.10;;;;;;4988503;28;20381;-80
2022/07/10 07:04:17;;;;;;;;;;;25.00;63.30;;;;;;4986112;28;20456;-81
2022/07/10 07:06:44;;;;;;;;;;;24.90;63.30;;;;;;4985437;28;19965;-79
2022/07/10 07:09:12;;;;;;;;;;;24.90;63.50;;;;;;4989170;28;19965;-79
2022/07/10 07:11:39;;;;;;;;;;;25.00;63.60;;;;;;4989230;28;19973;-80
2022/07/10 07:14:06;;;;;;;;;;;25.00;63.70;;;;;;4985537;28;19977;-82
2022/07/10 07:16:41;;;;;;;;;;;25.00;63.80;;;;;;4984771;28;19973;-82
2022/07/10 07:19:08;;;;;;;;;;;25.00;63.90;;;;;;4984426;28;19933;-82
2022/07/10 07:24:20;;;;;;;;;;;24.90;64.00;;;;;;4981808;28;19930;-83
2022/07/10 07:26:47;;;;;;;;;;;25.00;64.20;;;;;;4982716;28;20457;-83
2022/07/10 07:29:14;;;;;;;;;;;24.90;64.20;;;;;;4981609;28;19933;-83
2022/07/10 07:31:41;;;;;;;;;;;25.00;64.40;;;;;;4981904;28;19933;-82
2022/07/10 07:34:08;;;;;;;;;;;25.00;64.50;;;;;;4981701;28;20370;-82
2022/07/10 07:36:34;;;;;;;;;;;25.00;64.60;;;;;;4981383;28;19988;-83
2022/07/10 07:39:01;;;;;;;;;;;25.00;64.70;;;;;;4980849;28;20390;-83
2022/07/10 07:41:29;;;;;;;;;;;25.00;64.70;;;;;;4982445;28;19976;-83
2022/07/10 07:43:56;;;;;;;;;;;25.00;64.90;;;;;;4982259;28;20012;-84
2022/07/10 07:46:24;;;;;;;;;;;25.00;65.00;;;;;;4982583;28;19993;-82
2022/07/10 07:48:50;;;;;;;;;;;25.00;65.10;;;;;;4983253;28;19926;-81
2022/07/10 07:51:17;;;;;;;;;;;25.00;65.10;;;;;;4980494;28;20545;-83
2022/07/10 07:53:44;;;;;;;;;;;25.00;65.20;;;;;;4981370;28;19926;-82
2022/07/10 07:56:11;;;;;;;;;;;25.00;65.20;;;;;;4980926;28;19989;-83
2022/07/10 07:58:39;;;;;;;;;;;25.00;65.30;;;;;;4982557;28;20025;-82
2022/07/10 08:01:05;;;;;;;;;;;25.00;65.30;;;;;;4981706;28;20345;-83
2022/07/10 08:03:32;;;;;;;;;;;25.00;65.30;;;;;;4980247;28;20016;-83
2022/07/10 08:05:58;;;;;;;;;;;25.00;65.20;;;;;;4979380;28;20017;-83
2022/07/10 08:08:25;;;;;;;;;;;24.90;65.00;;;;;;4979566;28;20017;-84
2022/07/10 08:10:52;;;;;;;;;;;24.90;64.80;;;;;;4977921;28;19936;-84
2022/07/10 08:13:18;;;;;;;;;;;24.90;64.70;;;;;;4976904;28;20121;-85
2022/07/10 08:15:46;;;;;;;;;;;24.90;64.50;;;;;;4982321;28;19973;-84
2022/07/10 08:18:13;;;;;;;;;;;24.90;64.30;;;;;;4978355;28;19926;-85
2022/07/10 08:20:40;;;;;;;;;;;24.90;64.00;;;;;;4977793;28;19972;-84
2022/07/10 08:23:06;;;;;;;;;;;24.80;63.60;;;;;;4977480;28;19926;-84
2022/07/10 08:25:35;;;;;;;;;;;24.80;63.50;;;;;;4980015;28;19926;-83
2022/07/10 08:28:02;;;;;;;;;;;24.80;63.20;;;;;;4982561;28;19926;-84
2022/07/10 08:30:28;;;;;;;;;;;24.80;62.90;;;;;;4980519;28;20382;-82
2022/07/10 08:32:56;;;;;;;;;;;24.80;62.80;;;;;;4980246;28;20016;-81
2022/07/10 08:35:23;;;;;;;;;;;24.70;62.30;;;;;;4979405;28;19926;-82
2022/07/10 08:37:50;;;;;;;;;;;24.70;62.10;;;;;;4983893;28;19992;-85
2022/07/10 08:40:18;;;;;;;;;;;24.70;61.80;;;;;;4981425;28;19926;-83
2022/07/10 08:42:47;;;;;;;;;;;24.70;61.50;;;;;;4981599;28;20013;-82
2022/07/10 08:45:20;;;;;;;;;;;24.70;60.80;;;;;;4979737;28;19926;-81
2022/07/10 08:47:46;;;;;;;;;;;24.70;60.70;;;;;;4980082;28;19989;-80
2022/07/10 08:50:17;;;;;;;;;;;24.60;60.60;;;;;;4979247;28;19973;-81
2022/07/10 08:52:46;;;;;;;;;;;24.50;60.20;;;;;;4979080;28;19949;-81
2022/07/10 08:55:14;;;;;;;;;;;24.60;60.00;;;;;;4979026;28;19977;-80
2022/07/10 08:57:41;;;;;;;;;;;24.60;59.80;;;;;;4979233;28;19989;-80
2022/07/10 09:00:09;;;;;;;;;;;24.60;59.60;;;;;;4979706;28;20011;-80
2022/07/10 09:02:35;;;;;;;;;;;24.60;59.40;;;;;;4979681;28;20365;-80
2022/07/10 09:05:04;;;;;;;;;;;24.60;59.30;;;;;;4979298;28;20012;-80
2022/07/10 09:07:37;;;;;;;;;;;24.60;59.30;;;;;;4979648;28;19998;-80
2022/07/10 09:10:06;;;;;;;;;;;24.70;59.20;;;;;;4979803;28;19926;-80
2022/07/10 09:12:49;;;;;;;;;;;24.70;59.10;;;;;;4980920;28;20385;-82
2022/07/10 09:15:17;;;;;;;;;;;24.70;59.00;;;;;;4982551;28;19926;-82
2022/07/10 09:17:50;;;;;;;;;;;24.70;58.80;;;;;;4981096;28;19926;-82
2022/07/10 09:20:24;;;;;;;;;;;24.70;58.60;;;;;;4980876;28;19965;-80
2022/07/10 09:22:53;;;;;;;;;;;24.70;58.50;;;;;;4979908;28;19961;-80
2022/07/10 09:25:19;;;;;;;;;;;24.70;58.30;;;;;;4979143;28;20366;-80
2022/07/10 09:27:53;;;;;;;;;;;24.70;58.10;;;;;;4979024;28;20021;-80
2022/07/10 09:30:31;;;;;;;;;;;24.70;57.80;;;;;;4979669;28;19926;-80
2022/07/10 09:33:13;;;;;;;;;;;24.70;57.70;;;;;;4981984;28;20013;-84
2022/07/10 09:36:06;;;;;;;;;;;24.70;57.50;;;;;;4977071;28;19972;-85
2022/07/10 09:38:53;;;;;;;;;;;24.70;57.30;;;;;;4980130;28;20106;-86
2022/07/10 09:41:21;;;;;;;;;;;24.70;57.10;;;;;;4979568;28;19927;-83
2022/07/10 09:43:51;;;;;;;;;;;24.70;57.00;;;;;;4976303;28;20024;-83
2022/07/10 09:46:19;;;;;;;;;;;24.70;56.70;;;;;;4978471;28;20410;-83
2022/07/10 09:48:46;;;;;;;;;;;24.70;56.50;;;;;;4976922;28;19976;-83
2022/07/10 09:51:12;;;;;;;;;;;24.70;56.30;;;;;;4979597;28;20016;-83
2022/07/10 09:53:40;;;;;;;;;;;24.70;56.10;;;;;;4981029;28;19930;-84
2022/07/10 09:56:09;;;;;;;;;;;24.70;55.80;;;;;;4980721;28;20009;-84
2022/07/10 09:58:36;;;;;;;;;;;24.70;55.80;;;;;;4980070;28;19926;-84
2022/07/10 10:01:03;;;;;;;;;;;24.70;55.80;;;;;;4981428;28;19926;-84
2022/07/10 10:03:33;;;;;;;;;;;24.70;55.80;;;;;;4981000;28;19933;-84
2022/07/10 10:06:03;;;;;;;;;;;24.70;55.40;;;;;;4983935;28;19958;-83
2022/07/10 10:08:30;;;;;;;;;;;24.70;55.20;;;;;;4982042;28;20017;-83
2022/07/10 10:10:57;;;;;;;;;;;24.70;55.00;;;;;;4980359;28;19932;-83
2022/07/10 10:13:27;;;;;;;;;;;24.70;54.70;;;;;;4979811;28;20013;-83
2022/07/10 10:15:55;;;;;;;;;;;24.70;54.60;;;;;;4980322;28;19926;-83
2022/07/10 10:18:22;;;;;;;;;;;24.70;54.40;;;;;;4980331;28;19961;-83
2022/07/10 10:20:48;;;;;;;;;;;24.70;54.20;;;;;;4981078;28;20092;-80
2022/07/10 10:23:17;;;;;;;;;;;24.70;54.10;;;;;;4983920;28;20312;-82
2022/07/10 10:25:44;;;;;;;;;;;24.70;53.90;;;;;;4983254;28;20333;-77
2022/07/10 10:28:12;;;;;;;;;;;24.70;53.70;;;;;;4985263;28;20001;-82
2022/07/10 10:30:41;;;;;;;;;;;24.70;53.60;;;;;;4983775;28;20381;-81
2022/07/10 10:33:26;;;;;;;;;;;24.80;53.50;;;;;;4979607;28;19980;-82
2022/07/10 10:35:53;;;;;;;;;;;24.80;53.40;;;;;;4982671;28;20012;-78
2022/07/10 10:38:20;;;;;;;;;;;24.80;53.30;;;;;;4985810;28;20429;-79
2022/07/10 14:03:10;;;;;;;;;;;25.10;46.30;;;;;;5458273;23;19925;-85
2022/07/10 14:05:37;;;;;;;;;;;25.10;46.40;;;;;;5014458;28;20004;-85
2022/07/10 14:08:04;;;;;;;;;;;25.10;46.40;;;;;;5014025;28;19964;-85
2022/07/10 14:10:31;;;;;;;;;;;25.00;46.30;;;;;;5013879;28;20300;-85
2022/07/10 14:12:58;;;;;;;;;;;25.10;46.30;;;;;;5014194;28;19925;-83
2022/07/10 14:15:24;;;;;;;;;;;25.10;46.00;;;;;;5014167;28;20291;-83
2022/07/10 14:17:51;;;;;;;;;;;25.00;45.70;;;;;;5014127;28;19925;-84
2022/07/10 14:20:19;;;;;;;;;;;25.00;45.60;;;;;;5014046;28;19926;-84
2022/07/10 14:22:47;;;;;;;;;;;25.00;45.50;;;;;;5013917;28;19925;-84
2022/07/10 14:25:14;;;;;;;;;;;25.00;45.40;;;;;;5013752;28;19925;-84
2022/07/10 14:27:41;;;;;;;;;;;25.00;45.30;;;;;;5013980;28;19925;-83
2022/07/10 14:30:11;;;;;;;;;;;25.00;45.20;;;;;;5030024;23;19952;-75
2022/07/10 14:38:20;;;;;;;;;;;25.00;45.00;;;;;;5020131;28;19926;-76
2022/07/10 14:40:57;;;;;;;;;;;25.00;44.90;;;;;;5030123;28;19936;-77
2022/07/10 14:43:26;;;;;;;;;;;25.00;44.70;;;;;;5027332;28;19932;-77
2022/07/10 14:45:53;;;;;;;;;;;25.00;44.60;;;;;;5026873;28;19929;-76
2022/07/10 14:48:20;;;;;;;;;;;25.00;44.60;;;;;;5027076;28;19973;-76
2022/07/10 14:50:48;;;;;;;;;;;25.00;44.50;;;;;;5029171;28;19933;-76
2022/07/10 14:53:14;;;;;;;;;;;25.00;44.40;;;;;;5027270;28;19972;-76
2022/07/10 14:55:41;;;;;;;;;;;25.00;44.40;;;;;;5027862;28;19926;-76
2022/07/10 14:58:08;;;;;;;;;;;25.00;44.30;;;;;;5030026;28;19971;-77
2022/07/10 15:00:35;;;;;;;;;;;25.00;44.30;;;;;;5028243;28;19926;-77
2022/07/10 15:03:02;;;;;;;;;;;25.00;44.20;;;;;;5027961;28;19972;-77
2022/07/10 15:05:29;;;;;;;;;;;25.00;44.10;;;;;;5026670;28;19925;-77
2022/07/10 15:07:57;;;;;;;;;;;24.90;44.00;;;;;;5022538;28;19965;-75
2022/07/10 15:10:24;;;;;;;;;;;25.00;44.10;;;;;;5019385;28;19965;-75
2022/07/10 15:12:51;;;;;;;;;;;24.90;44.00;;;;;;5019146;28;19989;-75
2022/07/10 15:15:18;;;;;;;;;;;24.90;43.90;;;;;;5021909;28;19937;-76
2022/07/10 15:17:45;;;;;;;;;;;24.90;44.30;;;;;;5020280;28;19925;-75
2022/07/10 15:20:13;;;;;;;;;;;24.90;43.70;;;;;;5020167;28;19965;-75
2022/07/10 15:22:39;;;;;;;;;;;24.90;43.70;;;;;;5019167;28;19926;-76
2022/07/10 15:25:08;;;;;;;;;;;24.90;43.60;;;;;;5019128;28;19961;-76
2022/07/10 15:27:35;;;;;;;;;;;24.90;43.50;;;;;;5020406;28;19956;-75
2022/07/10 15:30:03;;;;;;;;;;;24.90;43.40;;;;;;5023842;28;19926;-76
2022/07/10 15:32:31;;;;;;;;;;;24.90;43.30;;;;;;5027248;28;19925;-77
2022/07/10 15:34:59;;;;;;;;;;;24.90;43.20;;;;;;5026603;28;19930;-75
2022/07/10 15:37:26;;;;;;;;;;;24.80;43.10;;;;;;5026151;28;19975;-76
2022/07/10 15:39:53;;;;;;;;;;;24.80;43.00;;;;;;5025340;28;19929;-77
2022/07/10 15:42:22;;;;;;;;;;;24.80;42.90;;;;;;5026036;28;19948;-77
2022/07/10 15:44:55;;;;;;;;;;;24.80;42.90;;;;;;5029406;28;20297;-77
2022/07/10 15:47:22;;;;;;;;;;;24.80;42.70;;;;;;5027164;28;19948;-77
2022/07/10 15:49:49;;;;;;;;;;;24.80;42.60;;;;;;5027152;28;19925;-76
2022/07/10 15:52:17;;;;;;;;;;;24.70;42.50;;;;;;5028953;28;19968;-76
2022/07/10 15:54:44;;;;;;;;;;;24.80;42.70;;;;;;5023681;28;19926;-79
2022/07/10 15:57:11;;;;;;;;;;;24.80;42.70;;;;;;5028173;28;19926;-79
2022/07/10 15:59:40;;;;;;;;;;;24.80;42.70;;;;;;5024146;28;19929;-79
2022/07/10 16:02:08;;;;;;;;;;;24.80;42.60;;;;;;5023813;28;19925;-80
2022/07/10 16:04:35;;;;;;;;;;;24.80;42.60;;;;;;5024255;28;19989;-79
2022/07/10 16:07:02;;;;;;;;;;;24.90;42.70;;;;;;5024563;28;19926;-80
2022/07/10 16:09:29;;;;;;;;;;;24.80;42.60;;;;;;5024766;28;19925;-80
2022/07/10 16:11:56;;;;;;;;;;;24.90;43.30;;;;;;5023027;28;19925;-79
2022/07/10 16:14:23;;;;;;;;;;;24.90;42.70;;;;;;5024044;28;19947;-79
2022/07/10 16:16:52;;;;;;;;;;;24.90;42.60;;;;;;5024317;28;19936;-79
2022/07/10 16:19:19;;;;;;;;;;;24.80;42.50;;;;;;5023942;28;20277;-79
2022/07/10 16:21:47;;;;;;;;;;;24.80;42.50;;;;;;5024052;28;20373;-80
2022/07/10 16:24:13;;;;;;;;;;;24.80;42.40;;;;;;5022523;28;19948;-79
2022/07/10 16:26:40;;;;;;;;;;;24.80;42.40;;;;;;5022242;28;19952;-80
2022/07/10 16:29:07;;;;;;;;;;;24.80;42.30;;;;;;5023445;28;19926;-79
2022/07/10 16:31:36;;;;;;;;;;;24.80;42.20;;;;;;5028780;28;19925;-80
2022/07/10 16:34:04;;;;;;;;;;;24.70;42.10;;;;;;5021096;28;19925;-80
2022/07/10 16:36:31;;;;;;;;;;;24.80;42.10;;;;;;5020058;28;19966;-80
2022/07/10 16:38:58;;;;;;;;;;;24.70;41.90;;;;;;5020375;28;19933;-78
2022/07/10 16:41:25;;;;;;;;;;;24.70;41.90;;;;;;5021035;28;19972;-80
2022/07/10 16:43:52;;;;;;;;;;;24.70;41.80;;;;;;5017521;28;19930;-78
2022/07/10 16:46:19;;;;;;;;;;;24.70;41.70;;;;;;5018535;28;20016;-77
2022/07/10 16:48:46;;;;;;;;;;;24.70;41.70;;;;;;5014917;28;19926;-77
2022/07/10 16:51:14;;;;;;;;;;;24.70;41.30;;;;;;5015026;28;20004;-78
2022/07/10 16:53:41;;;;;;;;;;;24.60;41.00;;;;;;5015440;28;20083;-77
2022/07/10 16:56:07;;;;;;;;;;;24.50;40.90;;;;;;5015546;28;19985;-77
2022/07/10 16:58:34;;;;;;;;;;;24.40;40.60;;;;;;5015178;28;19925;-77
2022/07/10 17:01:02;;;;;;;;;;;24.40;40.40;;;;;;5015603;28;20004;-76
2022/07/10 17:03:29;;;;;;;;;;;24.30;40.10;;;;;;5014594;28;20278;-77
2022/07/10 17:05:56;;;;;;;;;;;24.30;39.90;;;;;;5014759;28;20000;-77
2022/07/10 17:08:24;;;;;;;;;;;24.30;39.80;;;;;;5014573;28;20389;-76
2022/07/10 17:10:51;;;;;;;;;;;24.30;39.50;;;;;;5014693;28;20029;-76
2022/07/10 17:13:19;;;;;;;;;;;24.20;39.20;;;;;;5014921;28;19929;-76
2022/07/10 17:15:45;;;;;;;;;;;24.20;38.90;;;;;;5014418;28;20344;-76
2022/07/10 17:18:12;;;;;;;;;;;24.20;38.80;;;;;;5014700;28;20377;-77
2022/07/10 17:20:39;;;;;;;;;;;24.20;38.80;;;;;;5014485;28;20347;-76
2022/07/10 17:23:05;;;;;;;;;;;24.20;38.70;;;;;;5014221;28;20466;-76
2022/07/10 17:25:33;;;;;;;;;;;24.20;38.40;;;;;;5014332;28;20449;-76
2022/07/10 17:28:00;;;;;;;;;;;24.10;38.20;;;;;;5016112;28;20020;-79
2022/07/10 17:30:27;;;;;;;;;;;24.10;37.90;;;;;;5018281;28;19925;-79
2022/07/10 17:32:53;;;;;;;;;;;24.00;37.70;;;;;;5018538;28;19926;-79
2022/07/10 17:35:20;;;;;;;;;;;24.00;37.70;;;;;;5018514;28;19925;-79
2022/07/10 17:37:47;;;;;;;;;;;24.00;37.50;;;;;;5017620;28;19966;-79
2022/07/10 17:40:14;;;;;;;;;;;24.00;37.30;;;;;;5017093;28;19933;-79
2022/07/10 17:42:42;;;;;;;;;;;24.00;37.10;;;;;;5017690;28;20331;-79
2022/07/10 17:45:09;;;;;;;;;;;24.00;37.10;;;;;;5018351;28;19929;-79
2022/07/10 17:47:36;;;;;;;;;;;23.90;36.90;;;;;;5017986;28;20020;-79
2022/07/10 17:50:03;;;;;;;;;;;23.90;36.90;;;;;;5018665;28;19925;-81
2022/07/10 17:52:30;;;;;;;;;;;24.00;36.90;;;;;;5018360;28;19937;-82
2022/07/10 17:54:57;;;;;;;;;;;24.00;36.80;;;;;;5017618;28;20016;-82
2022/07/10 17:57:23;;;;;;;;;;;24.00;36.60;;;;;;5018247;28;19960;-82
2022/07/10 17:59:51;;;;;;;;;;;23.90;36.30;;;;;;5018556;28;20028;-82
2022/07/10 18:02:18;;;;;;;;;;;23.90;36.30;;;;;;5018132;28;20393;-82
2022/07/10 18:04:45;;;;;;;;;;;24.00;36.40;;;;;;5018638;28;20016;-82
2022/07/10 18:07:11;;;;;;;;;;;24.00;36.40;;;;;;5018778;28;20009;-81
2022/07/10 18:09:38;;;;;;;;;;;24.00;36.30;;;;;;5019218;28;20020;-82
2022/07/10 18:12:05;;;;;;;;;;;24.00;36.30;;;;;;5022781;28;19925;-81
2022/07/10 18:14:32;;;;;;;;;;;24.00;36.30;;;;;;5022813;28;19940;-81
2022/07/10 18:17:00;;;;;;;;;;;24.00;36.20;;;;;;5022774;28;20020;-80
2022/07/10 18:19:26;;;;;;;;;;;24.10;36.30;;;;;;5022189;28;19968;-80
2022/07/10 18:21:53;;;;;;;;;;;24.10;36.30;;;;;;5022476;28;19976;-81
2022/07/10 18:24:20;;;;;;;;;;;24.20;36.30;;;;;;5021853;28;20024;-81
2022/07/10 18:26:47;;;;;;;;;;;24.20;36.30;;;;;;5021584;28;19925;-80
2022/07/10 18:29:13;;;;;;;;;;;24.20;36.30;;;;;;5021751;28;20016;-78
2022/07/10 18:31:40;;;;;;;;;;;24.20;36.20;;;;;;5021973;28;20009;-81
2022/07/10 18:36:53;;;;;;;;;;;24.20;36.20;;;;;;5024126;28;19952;-80
2022/07/10 18:39:19;;;;;;;;;;;24.20;36.20;;;;;;5023517;28;19976;-80
2022/07/10 18:41:46;;;;;;;;;;;24.20;36.20;;;;;;5022681;28;20017;-80
2022/07/10 18:44:13;;;;;;;;;;;24.30;36.40;;;;;;5024744;28;20024;-80
2022/07/10 18:46:40;;;;;;;;;;;24.30;36.30;;;;;;5023916;28;19986;-80
2022/07/10 18:49:06;;;;;;;;;;;24.30;36.30;;;;;;5023423;28;19969;-80
2022/07/10 18:51:35;;;;;;;;;;;24.30;36.30;;;;;;5023714;28;19996;-80
2022/07/10 18:54:02;;;;;;;;;;;24.30;36.30;;;;;;5023528;28;19925;-80
2022/07/10 18:56:28;;;;;;;;;;;24.30;36.30;;;;;;5023345;28;19929;-80
2022/07/10 18:58:56;;;;;;;;;;;24.30;36.30;;;;;;5024676;28;20004;-80
2022/07/10 19:01:24;;;;;;;;;;;24.30;36.30;;;;;;5025087;28;19925;-80
2022/07/10 19:03:51;;;;;;;;;;;24.30;36.30;;;;;;5022835;28;19926;-80
2022/07/10 19:06:18;;;;;;;;;;;24.30;36.30;;;;;;5024110;28;20016;-80
2022/07/10 19:08:46;;;;;;;;;;;24.40;36.30;;;;;;5038759;28;19926;-80
2022/07/10 19:11:12;;;;;;;;;;;24.40;36.30;;;;;;5028046;28;19961;-82
2022/07/10 19:13:39;;;;;;;;;;;24.30;36.20;;;;;;5024244;28;20000;-81
2022/07/10 19:16:06;;;;;;;;;;;24.40;36.30;;;;;;5024613;28;19992;-81
2022/07/10 19:18:33;;;;;;;;;;;24.40;36.30;;;;;;5025739;28;19989;-79
2022/07/10 19:21:00;;;;;;;;;;;24.40;36.30;;;;;;5025893;28;19964;-79
2022/07/10 19:23:26;;;;;;;;;;;24.40;36.30;;;;;;5025647;28;19997;-80
2022/07/10 19:25:55;;;;;;;;;;;24.40;36.30;;;;;;5025556;28;19937;-80
2022/07/10 19:28:21;;;;;;;;;;;24.40;36.30;;;;;;5024024;28;19929;-79
2022/07/10 19:30:48;;;;;;;;;;;24.40;36.30;;;;;;5025450;28;19925;-80
2022/07/10 19:33:15;;;;;;;;;;;24.40;36.30;;;;;;5024500;28;19948;-80
2022/07/10 19:35:41;;;;;;;;;;;24.40;36.30;;;;;;5026002;28;19992;-80
2022/07/10 19:38:08;;;;;;;;;;;24.40;36.30;;;;;;5025210;28;19964;-81
2022/07/10 19:40:35;;;;;;;;;;;24.40;36.30;;;;;;5024526;28;19960;-80
2022/07/10 19:43:03;;;;;;;;;;;24.40;36.30;;;;;;5024458;28;19926;-79
2022/07/10 19:45:29;;;;;;;;;;;24.40;36.30;;;;;;5024113;28;20016;-80
2022/07/10 19:47:57;;;;;;;;;;;24.40;36.30;;;;;;5023881;28;19992;-79
2022/07/10 19:50:23;;;;;;;;;;;24.40;36.30;;;;;;5025302;28;19932;-79
2022/07/10 19:52:50;;;;;;;;;;;24.50;36.40;;;;;;5024258;28;19964;-79
2022/07/10 19:55:17;;;;;;;;;;;24.50;36.40;;;;;;5023861;28;20043;-79
2022/07/10 19:57:44;;;;;;;;;;;24.50;36.50;;;;;;5022806;28;19973;-78
2022/07/10 20:00:12;;;;;;;;;;;24.50;36.50;;;;;;5020108;28;19979;-80
2022/07/10 20:02:39;;;;;;;;;;;24.50;36.50;;;;;;5020614;28;19926;-79
2022/07/10 20:05:07;;;;;;;;;;;24.50;36.50;;;;;;5021897;28;19929;-79
2022/07/10 20:07:34;;;;;;;;;;;24.40;36.40;;;;;;5020968;28;19979;-81
2022/07/10 20:10:00;;;;;;;;;;;24.50;36.50;;;;;;5024200;28;19929;-80
2022/07/10 20:12:27;;;;;;;;;;;24.50;36.50;;;;;;5021177;28;20039;-80
2022/07/10 20:14:54;;;;;;;;;;;24.50;36.50;;;;;;5020170;28;20009;-80
2022/07/10 20:17:22;;;;;;;;;;;24.50;36.50;;;;;;5021060;28;20008;-79
2022/07/10 20:19:48;;;;;;;;;;;24.50;36.50;;;;;;5021722;28;20339;-79
2022/07/10 20:22:15;;;;;;;;;;;24.50;36.50;;;;;;5023058;28;19988;-80
2022/07/10 20:24:42;;;;;;;;;;;24.50;36.60;;;;;;5023361;28;19977;-79
2022/07/10 20:27:08;;;;;;;;;;;24.50;36.60;;;;;;5021150;28;20021;-79
2022/07/10 20:29:35;;;;;;;;;;;24.40;36.50;;;;;;5019303;28;20008;-79
2022/07/10 20:32:02;;;;;;;;;;;24.50;36.60;;;;;;5043848;23;19925;-82
2022/07/10 20:34:35;;;;;;;;;;;24.50;36.60;;;;;;5017412;28;20013;-86
2022/07/10 20:39:46;;;;;;;;;;;24.50;36.70;;;;;;5028905;28;19928;-80
2022/07/10 20:42:16;;;;;;;;;;;24.50;36.70;;;;;;5029259;28;20389;-80
2022/07/10 20:44:42;;;;;;;;;;;24.50;36.80;;;;;;5029363;28;19957;-82
2022/07/10 20:47:10;;;;;;;;;;;24.50;37.40;;;;;;5030210;28;19972;-82
2022/07/10 20:49:38;;;;;;;;;;;24.50;36.80;;;;;;5028034;28;19972;-80
2022/07/10 20:52:05;;;;;;;;;;;24.50;36.80;;;;;;5027009;28;19948;-83
2022/07/10 20:54:32;;;;;;;;;;;24.50;36.90;;;;;;5023486;28;20337;-84
2022/07/10 20:56:58;;;;;;;;;;;24.50;36.90;;;;;;5024489;28;19953;-84
2022/07/10 20:59:25;;;;;;;;;;;24.50;36.90;;;;;;5027070;28;19968;-84
2022/07/10 21:01:53;;;;;;;;;;;24.50;36.90;;;;;;5024453;28;19929;-84
2022/07/10 21:04:19;;;;;;;;;;;24.50;37.00;;;;;;5025228;28;19925;-84
2022/07/10 21:06:47;;;;;;;;;;;24.50;37.00;;;;;;5025445;28;19977;-84
2022/07/10 21:09:14;;;;;;;;;;;24.50;37.10;;;;;;5023091;28;20016;-84
2022/07/10 21:11:41;;;;;;;;;;;24.50;37.10;;;;;;5022168;28;19993;-84
2022/07/10 21:14:07;;;;;;;;;;;24.50;37.10;;;;;;5023941;28;20431;-84
2022/07/10 21:16:34;;;;;;;;;;;24.50;37.20;;;;;;5023320;28;20351;-84
2022/07/10 21:19:01;;;;;;;;;;;24.50;37.20;;;;;;5022728;28;19964;-84
2022/07/10 21:21:28;;;;;;;;;;;24.60;37.30;;;;;;5023418;28;20292;-84
2022/07/10 21:23:56;;;;;;;;;;;24.60;37.40;;;;;;5022751;28;19984;-84
2022/07/10 21:26:23;;;;;;;;;;;24.60;37.50;;;;;;5024309;28;19965;-84
2022/07/10 21:28:50;;;;;;;;;;;24.60;37.50;;;;;;5023268;28;19968;-84
2022/07/10 21:31:16;;;;;;;;;;;24.60;37.50;;;;;;5019699;28;19925;-84
2022/07/10 21:33:43;;;;;;;;;;;24.60;37.60;;;;;;5018172;28;20389;-84
2022/07/10 21:36:10;;;;;;;;;;;24.60;37.60;;;;;;5017317;28;19925;-84
2022/07/10 21:38:40;;;;;;;;;;;24.60;37.70;;;;;;5018374;28;19964;-84
2022/07/10 21:41:08;;;;;;;;;;;24.60;37.70;;;;;;5018169;28;19925;-85
